createdAt,value
2023-02-22T00:04:53.967Z,14.17
2023-02-22T00:14:58.589Z,13.00
2023-02-22T00:25:01.820Z,17.77
2023-02-22T00:35:08.306Z,12.77
2023-02-22T00:45:11.554Z,14.30
2023-02-22T00:55:21.514Z,12.40
2023-02-22T01:05:27.353Z,12.30
2023-02-22T01:15:31.942Z,11.93
2023-02-22T01:25:36.508Z,14.93
2023-02-22T01:35:41.844Z,11.17
2023-02-22T01:46:02.566Z,12.07
2023-02-22T01:56:08.452Z,12.97
2023-02-22T02:06:15.577Z,11.00
2023-02-22T02:16:21.889Z,10.00
2023-02-22T02:27:00.412Z,12.43
2023-02-22T02:37:13.086Z,13.10
2023-02-22T02:47:20.996Z,10.97
2023-02-22T02:57:25.739Z,11.57
2023-02-22T03:07:45.501Z,11.80
2023-02-22T03:17:57.665Z,11.73
2023-02-22T03:28:05.341Z,10.73
2023-02-22T03:38:13.610Z,11.50
2023-02-22T03:48:23.890Z,11.57
2023-02-22T03:58:32.625Z,9.67
2023-02-22T04:08:36.073Z,9.70
2023-02-22T04:18:40.696Z,9.87
2023-02-22T04:28:44.282Z,9.27
2023-02-22T04:38:53.618Z,10.27
2023-02-22T04:48:57.630Z,12.83
2023-02-22T04:59:04.950Z,9.77
2023-02-22T05:09:08.536Z,8.23
2023-02-22T05:19:13.304Z,8.80
2023-02-22T05:29:16.468Z,9.73
2023-02-22T05:39:21.054Z,9.83
2023-02-22T05:49:24.236Z,10.50
2023-02-22T05:59:29.378Z,8.20
2023-02-22T06:09:32.620Z,10.70
2023-02-22T06:19:37.438Z,10.73
2023-02-22T06:29:40.678Z,10.87
2023-02-22T06:39:45.313Z,8.80
2023-02-22T06:49:54.175Z,9.27
2023-02-22T06:59:58.754Z,10.17
2023-02-22T07:10:02.259Z,9.23
2023-02-22T07:20:07.889Z,10.23
2023-02-22T07:30:18.269Z,7.80
2023-02-22T07:40:23.088Z,8.47
2023-02-22T07:50:27.642Z,8.87
2023-02-22T08:00:33.953Z,8.97
2023-02-22T08:10:37.988Z,10.10
2023-02-22T08:20:44.601Z,7.23
2023-02-22T08:30:48.082Z,10.03
2023-02-22T08:40:52.864Z,7.83
2023-02-22T08:50:56.234Z,6.97
2023-02-22T09:01:00.832Z,6.80
2023-02-22T09:11:04.022Z,8.03
2023-02-22T09:21:08.662Z,8.87
2023-02-22T09:31:11.858Z,9.07
2023-02-22T09:41:23.812Z,10.47
2023-02-22T09:51:29.987Z,11.60
2023-02-22T10:01:39.146Z,13.20
2023-02-22T10:11:53.419Z,14.70
2023-02-22T10:22:28.436Z,13.30
2023-02-22T10:32:38.642Z,14.63
2023-02-22T10:42:43.240Z,13.43
2023-02-22T10:52:46.480Z,16.85
2023-02-22T11:02:56.099Z,15.65
2023-02-22T11:12:59.376Z,16.42
2023-02-22T11:23:08.165Z,15.57
2023-02-22T11:33:23.767Z,17.08
2023-02-22T11:43:28.506Z,19.63
2023-02-22T11:53:47.195Z,16.33
2023-02-22T12:04:23.814Z,16.85
2023-02-22T12:14:35.551Z,18.73
2023-02-22T12:24:44.872Z,15.10
2023-02-22T12:34:54.308Z,16.88
2023-02-22T12:45:04.606Z,17.15
2023-02-22T12:55:16.993Z,13.75
2023-02-22T13:05:21.716Z,13.75
2023-02-22T13:15:30.243Z,11.50
2023-02-22T13:25:41.909Z,12.52
2023-02-22T13:36:02.603Z,10.50
2023-02-22T13:46:36.547Z,12.23
2023-02-22T13:56:44.007Z,13.63
2023-02-22T14:06:48.713Z,11.95
2023-02-22T14:17:31.676Z,14.93
2023-02-22T14:27:44.025Z,14.75
2023-02-22T14:37:54.571Z,14.15
2023-02-22T14:48:11.618Z,17.75
2023-02-22T14:58:19.691Z,16.67
2023-02-22T15:08:28.550Z,15.35
2023-02-22T15:18:38.796Z,14.20
2023-02-22T15:28:44.101Z,13.38
2023-02-22T15:38:51.688Z,14.20
2023-02-22T15:49:23.215Z,13.95
2023-02-22T15:59:30.553Z,13.75
2023-02-22T16:09:35.784Z,13.77
2023-02-22T16:19:42.540Z,12.82
2023-02-22T16:30:23.213Z,13.73
2023-02-22T16:40:32.378Z,13.88
2023-02-22T16:50:37.160Z,11.88
2023-02-22T17:00:42.324Z,12.97
2023-02-22T17:10:47.330Z,11.43
2023-02-22T17:20:50.811Z,9.97
2023-02-22T17:31:01.239Z,11.07
2023-02-22T17:41:07.617Z,11.75
2023-02-22T17:51:13.098Z,12.17
2023-02-22T18:01:27.644Z,13.50
2023-02-22T18:11:32.705Z,12.13
2023-02-22T18:21:36.039Z,14.10
2023-02-22T18:31:40.751Z,12.27
2023-02-22T18:41:45.786Z,10.97
2023-02-22T18:51:51.018Z,12.57
2023-02-22T19:01:54.226Z,13.73
2023-02-22T19:11:59.025Z,17.33
2023-02-22T19:22:02.295Z,12.43
2023-02-22T19:32:07.531Z,12.43
2023-02-22T19:42:11.086Z,10.73
2023-02-22T19:52:15.663Z,14.00
2023-02-22T20:02:20.448Z,14.87
2023-02-22T20:12:25.014Z,14.13
2023-02-22T20:22:28.229Z,15.77
2023-02-22T20:32:33.184Z,14.97
2023-02-22T20:42:36.620Z,17.37
2023-02-22T20:52:41.199Z,13.97
2023-02-22T21:02:46.610Z,15.20
2023-02-22T21:12:52.331Z,14.30
2023-02-22T21:22:55.613Z,14.13
2023-02-22T21:33:00.243Z,13.77
2023-02-22T21:43:03.501Z,14.37
2023-02-22T21:53:08.614Z,16.63
2023-02-22T22:03:20.277Z,14.73
2023-02-22T22:13:25.678Z,13.77
2023-02-22T22:23:30.396Z,16.33
2023-02-22T22:33:38.480Z,14.53
2023-02-22T22:43:46.143Z,14.60
2023-02-22T22:53:51.747Z,17.47
2023-02-22T23:03:56.679Z,15.50
2023-02-22T23:14:04.615Z,16.07
2023-02-22T23:24:08.213Z,15.37
2023-02-22T23:34:12.774Z,15.60
2023-02-22T23:44:17.744Z,18.50
2023-02-22T23:54:24.513Z,14.93
